Time;durP1;ratioP1;P1;durP2;ratioP2;P2;SDS_P1;SDS_P2;PMS_P1;PMS_P2;Temp;Humidity;BMP_temperature;BMP_pressure;BME280_temperature;BME280_humidity;BME280_pressure;Samples;Min_cycle;Max_cycle;Signal;HPM_P1;HPM_P2
2022/11/28 00:42:43;;;;;;;150.18;39.30;;;7.60;99.90;;;;;;7398243;23;20051;-83
2022/11/28 01:12:19;;;;;;;64.47;17.67;;;6.90;99.90;;;;;;6088396;29;20055;-81
2022/11/28 01:52:02;;;;;;;53.47;15.48;;;7.10;99.90;;;;;;5962525;29;20534;-81
2022/11/28 02:27:20;;;;;;;63.25;18.48;;;7.00;99.90;;;;;;6087213;29;20055;-81
2022/11/28 02:39:03;;;;;;;70.90;17.27;;;7.40;99.90;;;;;;6090672;29;20055;-81
2022/11/28 02:42:35;;;;;;;92.30;19.95;;;6.20;99.90;;;;;;6150588;28;20051;-81
2022/11/28 02:49:40;;;;;;;63.33;17.20;;;6.70;99.90;;;;;;6137174;28;20129;-81
2022/11/28 02:53:13;;;;;;;103.95;22.10;;;6.70;99.90;;;;;;6133900;28;20050;-81
2022/11/28 03:03:36;;;;;;;;;;;8.60;99.90;;;;;;6132650;29;20059;-82
2022/11/28 03:07:01;;;;;;;59.28;16.75;;;6.80;99.90;;;;;;6152910;28;19927;-82
2022/11/28 03:13:59;;;;;;;95.78;23.83;;;6.90;99.90;;;;;;6126970;28;20143;-81
2022/11/28 03:24:54;;;;;;;81.00;20.88;;;6.60;99.90;;;;;;6124050;28;20107;-81
2022/11/28 03:28:36;;;;;;;74.47;20.27;;;6.60;99.90;;;;;;6129083;28;20055;-81
2022/11/28 03:35:50;;;;;;;72.35;20.05;;;6.80;99.90;;;;;;6169444;28;20516;-82
2022/11/28 03:39:07;;;;;;;64.55;19.25;;;8.60;99.90;;;;;;6166348;28;20057;-81
2022/11/28 03:42:38;;;;;;;64.45;18.50;;;6.50;99.90;;;;;;6199370;28;20133;-83
2022/11/28 03:53:48;;;;;;;76.15;19.10;;;6.30;99.90;;;;;;6154825;28;20047;-82
2022/11/28 04:11:54;;;;;;;68.38;19.42;;;6.20;99.90;;;;;;6183696;22;20058;-85
2022/11/28 04:15:03;;;;;;;74.13;19.33;;;6.10;99.90;;;;;;6155917;28;20043;-83
2022/11/28 04:18:17;;;;;;;71.78;19.77;;;5.50;99.90;;;;;;6169879;28;20095;-83
2022/11/28 04:21:25;;;;;;;68.43;18.02;;;6.10;99.90;;;;;;6170200;28;20051;-85
2022/11/28 04:24:31;;;;;;;68.25;19.25;;;6.00;99.90;;;;;;6168308;28;20054;-85
2022/11/28 04:27:37;;;;;;;87.95;24.05;;;6.20;99.90;;;;;;6185865;28;20078;-84
2022/11/28 04:30:42;;;;;;;64.47;18.48;;;6.20;99.90;;;;;;6184978;28;20242;-84
2022/11/28 04:33:48;;;;;;;53.55;15.32;;;6.50;99.90;;;;;;6182056;28;20129;-83
2022/11/28 04:36:52;;;;;;;60.22;19.10;;;6.20;99.90;;;;;;6180537;28;20047;-84
2022/11/28 04:39:55;;;;;;;59.92;18.10;;;6.30;99.90;;;;;;6182165;28;20051;-84
2022/11/28 04:43:01;;;;;;;59.70;17.80;;;6.60;99.90;;;;;;6181030;28;20427;-84
2022/11/28 04:46:10;;;;;;;64.85;19.80;;;6.20;99.90;;;;;;6181114;28;20148;-84
2022/11/28 04:49:12;;;;;;;63.20;18.30;;;6.40;99.90;;;;;;6175579;28;20046;-84
2022/11/28 04:52:21;;;;;;;72.18;19.92;;;6.10;99.90;;;;;;6180071;28;20623;-84
2022/11/28 04:55:29;;;;;;;63.88;19.95;;;6.40;99.90;;;;;;6180193;28;20485;-84
2022/11/28 04:58:34;;;;;;;76.63;20.38;;;6.50;99.90;;;;;;6178662;28;20116;-83
2022/11/28 05:01:38;;;;;;;69.97;18.67;;;6.10;99.90;;;;;;6179241;28;20053;-84
2022/11/28 05:04:43;;;;;;;74.63;20.75;;;6.40;99.90;;;;;;6177083;28;20109;-84
2022/11/28 05:07:44;;;;;;;64.07;18.48;;;6.30;99.90;;;;;;6177429;28;20053;-83
2022/11/28 05:10:47;;;;;;;82.25;23.10;;;6.50;99.90;;;;;;6179283;28;20519;-83
2022/11/28 05:13:48;;;;;;;71.18;19.20;;;6.30;99.90;;;;;;6179644;28;20049;-84
2022/11/28 05:16:52;;;;;;;79.05;21.10;;;6.40;99.90;;;;;;6179027;28;20125;-83
2022/11/28 05:19:53;;;;;;;59.65;16.67;;;6.10;99.90;;;;;;6177810;28;20047;-83
2022/11/28 05:22:55;;;;;;;68.20;18.90;;;6.20;99.90;;;;;;6179038;28;20082;-84
2022/11/28 05:25:57;;;;;;;74.15;19.65;;;6.20;99.90;;;;;;6178560;28;20054;-83
2022/11/28 05:28:59;;;;;;;69.65;19.73;;;6.10;99.90;;;;;;6168463;28;20051;-83
2022/11/28 05:32:02;;;;;;;67.47;20.23;;;6.20;99.90;;;;;;6154988;28;20105;-83
2022/11/28 05:35:04;;;;;;;72.90;19.70;;;6.10;99.90;;;;;;6180203;28;20046;-84
2022/11/28 05:38:06;;;;;;;62.78;18.83;;;6.10;99.90;;;;;;6202282;28;20042;-84
2022/11/28 05:41:08;;;;;;;60.50;17.25;;;6.00;99.90;;;;;;6203046;28;20046;-84
2022/11/28 05:44:10;;;;;;;64.35;18.55;;;5.90;99.90;;;;;;6202256;28;20184;-86
2022/11/28 05:47:14;;;;;;;61.45;15.90;;;5.70;99.90;;;;;;6203304;28;20054;-85
2022/11/28 05:50:16;;;;;;;54.40;16.65;;;6.70;99.90;;;;;;6163958;28;20476;-83
2022/11/28 05:53:19;;;;;;;65.38;16.85;;;5.90;99.90;;;;;;6154203;28;20421;-83
2022/11/28 05:56:22;;;;;;;58.30;16.27;;;6.00;99.90;;;;;;6155234;28;20046;-83
2022/11/28 05:59:24;;;;;;;81.03;21.17;;;6.10;99.90;;;;;;6155237;28;20055;-83
2022/11/28 06:02:27;;;;;;;73.47;19.08;;;6.20;99.90;;;;;;6155007;28;20423;-83
2022/11/28 06:05:29;;;;;;;59.05;16.60;;;6.30;99.90;;;;;;6153930;28;20043;-83
2022/11/28 06:08:31;;;;;;;69.35;19.13;;;6.30;99.90;;;;;;6154187;28;20047;-83
2022/11/28 06:11:34;;;;;;;72.53;19.90;;;6.40;99.90;;;;;;6154313;28;20050;-82
2022/11/28 06:14:35;;;;;;;68.32;18.63;;;6.60;99.90;;;;;;6153802;28;20047;-83
2022/11/28 06:17:38;;;;;;;57.50;16.00;;;6.60;99.90;;;;;;6153985;28;20058;-83
2022/11/28 06:20:40;;;;;;;73.30;21.88;;;6.60;99.90;;;;;;6153209;28;20432;-83
2022/11/28 06:23:42;;;;;;;57.92;16.55;;;6.60;99.90;;;;;;6153871;28;20050;-86
2022/11/28 06:26:44;;;;;;;77.38;21.58;;;6.50;99.90;;;;;;6156453;28;20428;-83
2022/11/28 06:29:46;;;;;;;62.75;17.70;;;6.60;99.90;;;;;;6155623;28;20051;-84
2022/11/28 06:32:49;;;;;;;60.08;15.90;;;6.40;99.90;;;;;;6157199;28;20051;-87
2022/11/28 06:35:50;;;;;;;43.53;14.65;;;6.80;99.90;;;;;;6157019;28;20769;-83
2022/11/28 06:38:53;;;;;;;61.05;17.02;;;6.60;99.90;;;;;;6155772;28;20062;-83
2022/11/28 06:41:54;;;;;;;56.22;15.15;;;6.80;99.90;;;;;;6155942;28;20074;-85
2022/11/28 06:44:56;;;;;;;72.30;19.35;;;6.80;99.90;;;;;;6155821;28;20049;-85
2022/11/28 06:47:59;;;;;;;62.15;17.83;;;6.70;99.90;;;;;;6154988;28;20469;-84
2022/11/28 06:51:05;;;;;;;68.63;18.73;;;6.70;99.90;;;;;;6171519;28;20058;-85
2022/11/28 06:54:08;;;;;;;68.28;17.88;;;6.70;99.90;;;;;;6178591;28;20079;-85
2022/11/28 06:57:09;;;;;;;50.20;15.63;;;6.60;99.90;;;;;;6178372;28;20043;-86
2022/11/28 07:00:12;;;;;;;69.40;18.73;;;6.80;99.90;;;;;;6179056;28;20050;-85
2022/11/28 07:03:15;;;;;;;68.57;18.80;;;6.60;99.90;;;;;;6178850;28;20047;-83
2022/11/28 07:06:19;;;;;;;62.10;17.75;;;6.50;99.90;;;;;;6178903;28;20492;-85
2022/11/28 07:09:20;;;;;;;62.85;17.20;;;6.60;99.90;;;;;;6178390;28;20062;-86
2022/11/28 07:12:22;;;;;;;65.85;18.70;;;6.60;99.90;;;;;;6178296;28;20046;-84
2022/11/28 07:15:24;;;;;;;72.10;19.33;;;6.10;99.90;;;;;;6179016;28;20046;-86
2022/11/28 07:18:27;;;;;;;64.45;17.77;;;6.40;99.90;;;;;;6176996;28;20541;-85
2022/11/28 07:21:30;;;;;;;67.20;18.15;;;6.50;99.90;;;;;;6167385;28;20539;-85
2022/11/28 07:24:32;;;;;;;69.93;18.10;;;6.10;99.90;;;;;;6153568;28;20539;-85
2022/11/28 07:27:34;;;;;;;70.43;20.08;;;6.80;99.90;;;;;;6153957;28;20058;-84
2022/11/28 07:30:36;;;;;;;69.75;20.73;;;6.70;99.90;;;;;;6153302;28;20085;-85
2022/11/28 07:33:40;;;;;;;66.28;18.60;;;6.80;99.90;;;;;;6152865;28;20065;-84
2022/11/28 07:36:42;;;;;;;58.22;15.18;;;6.90;99.90;;;;;;6153599;28;20203;-84
2022/11/28 07:39:44;;;;;;;53.75;15.10;;;6.70;99.90;;;;;;6153080;28;20054;-84
2022/11/28 07:42:47;;;;;;;68.15;17.50;;;6.80;99.90;;;;;;6153937;28;20043;-84
2022/11/28 07:45:49;;;;;;;58.65;15.27;;;6.90;99.90;;;;;;6153434;28;20058;-85
2022/11/28 07:48:53;;;;;;;69.28;17.58;;;7.00;99.90;;;;;;6153454;28;20047;-84
2022/11/28 07:51:54;;;;;;;74.53;17.75;;;7.10;99.90;;;;;;6171745;28;20051;-84
2022/11/28 07:54:56;;;;;;;62.28;17.40;;;7.00;99.90;;;;;;6179392;28;20050;-85
2022/11/28 07:57:58;;;;;;;73.20;19.60;;;7.10;99.90;;;;;;6177193;28;20104;-86
2022/11/28 08:01:00;;;;;;;52.03;15.60;;;7.10;99.90;;;;;;6181204;28;20110;-83
2022/11/28 08:04:04;;;;;;;66.85;18.38;;;7.20;99.90;;;;;;6203241;28;20051;-83
2022/11/28 08:07:06;;;;;;;53.92;15.40;;;7.10;99.90;;;;;;6196203;28;20126;-86
2022/11/28 08:10:09;;;;;;;66.57;17.10;;;7.20;99.90;;;;;;6182801;28;20133;-87
2022/11/28 08:13:11;;;;;;;58.08;15.10;;;7.40;99.90;;;;;;6182194;28;20047;-86
2022/11/28 08:16:15;;;;;;;68.43;17.27;;;7.30;99.90;;;;;;6180446;28;20397;-87
2022/11/28 08:19:19;;;;;;;55.17;14.35;;;7.30;99.90;;;;;;6180835;28;20055;-87
2022/11/28 08:22:21;;;;;;;57.97;14.02;;;7.50;99.90;;;;;;6180499;28;20110;-86
2022/11/28 08:25:23;;;;;;;54.88;15.98;;;7.50;99.90;;;;;;6177869;28;20651;-87
2022/11/28 08:28:25;;;;;;;66.90;19.13;;;7.40;99.90;;;;;;6155042;28;20046;-85
2022/11/28 08:31:28;;;;;;;63.95;17.80;;;7.40;99.90;;;;;;6178774;28;20060;-86
2022/11/28 08:34:31;;;;;;;63.67;19.98;;;7.40;99.90;;;;;;6175404;28;20392;-86
2022/11/28 08:37:33;;;;;;;62.05;18.58;;;7.50;99.90;;;;;;6167170;28;20062;-87
2022/11/28 08:40:35;;;;;;;48.55;13.93;;;7.40;99.90;;;;;;6181782;28;20093;-87
2022/11/28 08:43:38;;;;;;;54.30;15.00;;;7.70;99.90;;;;;;6176307;28;20078;-86
2022/11/28 08:46:40;;;;;;;82.47;18.63;;;7.90;99.90;;;;;;6173081;28;20505;-86
2022/11/28 08:49:43;;;;;;;51.30;14.95;;;7.90;99.90;;;;;;6193145;28;20133;-86
2022/11/28 08:52:44;;;;;;;49.10;14.05;;;8.00;99.90;;;;;;6160855;28;20039;-86
2022/11/28 08:55:47;;;;;;;55.75;15.98;;;8.00;99.90;;;;;;6152240;28;20051;-86
2022/11/28 08:58:48;;;;;;;50.35;14.43;;;8.10;99.90;;;;;;6149373;28;20047;-86
2022/11/28 09:01:52;;;;;;;49.88;13.93;;;8.20;99.90;;;;;;6149860;28;20051;-87
2022/11/28 09:04:55;;;;;;;60.08;14.73;;;8.20;99.90;;;;;;6150485;28;20043;-86
2022/11/28 09:07:57;;;;;;;53.95;14.35;;;8.20;99.90;;;;;;6173154;28;20076;-87
2022/11/28 09:10:59;;;;;;;91.35;25.50;;;6.50;99.90;;;;;;6151186;28;20055;-86
2022/11/28 09:14:01;;;;;;;52.00;15.40;;;8.60;99.90;;;;;;6150409;28;20082;-88
2022/11/28 09:17:04;;;;;;;61.30;17.40;;;8.50;99.90;;;;;;6151562;28;20051;-86
2022/11/28 09:20:09;;;;;;;67.07;18.40;;;8.60;99.90;;;;;;6149568;28;20059;-86
2022/11/28 09:23:11;;;;;;;56.60;14.60;;;8.70;99.90;;;;;;6150724;29;20629;-85
2022/11/28 09:26:18;;;;;;;49.85;12.57;;;8.70;99.90;;;;;;6150019;28;20085;-87
2022/11/28 09:29:20;;;;;;;47.23;14.00;;;8.90;99.90;;;;;;6150413;28;20048;-86
2022/11/28 09:32:22;;;;;;;51.97;13.70;;;9.90;99.90;;;;;;6149028;28;20577;-86
2022/11/28 09:35:25;;;;;;;49.13;12.48;;;9.00;99.90;;;;;;6149976;29;20050;-86
2022/11/28 09:38:27;;;;;;;66.55;15.88;;;9.00;99.90;;;;;;6180773;28;20061;-86
2022/11/28 09:41:51;;;;;;;58.42;13.77;;;9.00;99.90;;;;;;6173470;28;20046;-88
2022/11/28 09:44:57;;;;;;;55.28;14.68;;;9.00;99.90;;;;;;6173720;28;20054;-85
2022/11/28 09:48:06;;;;;;;56.40;13.95;;;9.00;99.90;;;;;;6174532;28;20116;-85
2022/11/28 09:51:29;;;;;;;36.25;11.02;;;9.10;99.90;;;;;;6174981;28;20061;-84
2022/11/28 09:54:39;;;;;;;63.28;16.92;;;9.20;99.90;;;;;;6161262;28;20637;-85
2022/11/28 09:57:45;;;;;;;54.25;14.88;;;9.10;99.90;;;;;;6149354;28;20187;-85
2022/11/28 10:00:56;;;;;;;53.65;13.77;;;9.10;99.90;;;;;;6153022;28;20509;-84
2022/11/28 10:04:05;;;;;;;51.15;14.60;;;9.50;99.90;;;;;;6153298;28;20424;-85
2022/11/28 10:07:17;;;;;;;46.95;12.23;;;9.60;99.90;;;;;;6155592;28;20039;-85
2022/11/28 10:10:26;;;;;;;46.72;13.10;;;9.50;99.90;;;;;;6195040;23;20492;-83
2022/11/28 10:13:39;;;;;;;45.83;12.32;;;9.60;99.90;;;;;;6208747;28;20064;-83
2022/11/28 10:16:53;;;;;;;29.88;10.10;;;9.60;99.90;;;;;;6211234;28;20042;-83
2022/11/28 10:20:01;;;;;;;49.40;12.13;;;9.70;99.90;;;;;;6212925;28;20046;-83
2022/11/28 10:23:11;;;;;;;39.08;11.82;;;10.70;99.90;;;;;;6214009;28;20065;-83
2022/11/28 10:26:18;;;;;;;48.10;12.98;;;11.10;99.90;;;;;;6212627;28;20109;-83
2022/11/28 10:29:26;;;;;;;11.02;5.55;;;10.00;99.90;;;;;;6213175;28;20634;-83
2022/11/28 10:32:34;;;;;;;47.78;11.88;;;10.00;99.90;;;;;;6212357;28;20578;-83
2022/11/28 10:35:39;;;;;;;;;;;10.20;99.90;;;;;;6213505;28;20053;-83
2022/11/28 10:38:42;;;;;;;48.75;12.00;;;10.10;99.90;;;;;;6212973;28;19921;-83
2022/11/28 10:42:10;;;;;;;45.40;12.88;;;11.10;99.90;;;;;;6211701;28;20129;-84
2022/11/28 10:45:18;;;;;;;48.58;13.57;;;9.80;99.90;;;;;;6214407;28;20050;-83
2022/11/28 10:48:32;;;;;;;42.22;10.77;;;11.40;99.90;;;;;;6212444;28;20408;-83
2022/11/28 10:51:44;;;;;;;48.00;11.02;;;10.30;99.90;;;;;;6213401;28;20105;-83
2022/11/28 10:55:00;;;;;;;47.75;12.05;;;10.30;99.90;;;;;;6217757;28;20042;-83
2022/11/28 10:58:09;;;;;;;46.78;12.18;;;11.60;99.90;;;;;;6211716;28;20428;-84
2022/11/28 11:01:12;;;;;;;46.63;11.73;;;10.60;99.90;;;;;;6212243;28;20077;-83
2022/11/28 11:04:17;;;;;;;44.22;12.20;;;10.80;99.90;;;;;;6209642;28;20057;-83
2022/11/28 11:07:24;;;;;;;46.58;13.50;;;11.00;99.90;;;;;;6213721;28;20046;-84
2022/11/28 11:10:33;;;;;;;39.60;11.02;;;11.20;99.90;;;;;;6215974;28;20506;-84
2022/11/28 11:13:53;;;;;;;36.05;8.60;;;12.20;99.90;;;;;;6224591;28;20069;-83
2022/11/28 11:16:58;;;;;;;53.42;13.50;;;11.40;99.90;;;;;;6213846;28;20053;-83
2022/11/28 11:20:00;;;;;;;42.05;11.68;;;11.50;99.90;;;;;;6209458;28;20137;-83
2022/11/28 11:23:10;;;;;;;41.13;11.95;;;11.60;99.90;;;;;;6203841;28;20526;-83
2022/11/28 11:26:24;;;;;;;40.85;11.13;;;11.70;99.90;;;;;;6203401;28;20048;-83
2022/11/28 11:29:34;;;;;;;52.50;12.52;;;11.70;99.90;;;;;;6205641;28;20046;-83
2022/11/28 11:32:36;;;;;;;37.67;9.63;;;11.80;99.90;;;;;;6206249;28;20073;-83
2022/11/28 11:35:43;;;;;;;45.03;11.63;;;11.80;99.90;;;;;;6213705;28;20051;-83
2022/11/28 11:38:45;;;;;;;38.63;9.43;;;11.90;99.90;;;;;;6212976;28;20046;-83
2022/11/28 11:41:50;;;;;;;47.65;12.18;;;12.00;99.90;;;;;;6213027;28;20046;-84
2022/11/28 11:44:53;;;;;;;35.40;9.25;;;12.00;99.90;;;;;;6212368;28;20129;-84
2022/11/28 11:47:55;;;;;;;37.35;11.65;;;12.40;99.90;;;;;;6211925;28;20058;-84
2022/11/28 11:50:57;;;;;;;18.35;7.28;;;12.10;99.90;;;;;;6211960;28;20137;-83
2022/11/28 11:54:04;;;;;;;43.40;11.50;;;12.10;99.90;;;;;;6210382;28;20050;-83
2022/11/28 11:57:11;;;;;;;42.33;11.63;;;12.20;99.90;;;;;;6210839;28;20053;-84
2022/11/28 12:00:18;;;;;;;50.50;13.20;;;12.30;99.90;;;;;;6210211;28;20413;-83
2022/11/28 12:03:26;;;;;;;48.10;12.98;;;12.60;99.90;;;;;;6212129;28;20054;-84
2022/11/28 12:06:30;;;;;;;29.05;8.80;;;12.50;99.90;;;;;;6206713;28;20049;-83
2022/11/28 12:09:38;;;;;;;49.28;13.18;;;12.60;99.90;;;;;;6202557;28;20043;-83
2022/11/28 12:12:41;;;;;;;45.10;11.02;;;12.70;99.90;;;;;;6203591;28;20066;-83
2022/11/28 12:15:49;;;;;;;91.40;35.13;;;12.60;99.90;;;;;;6196173;28;20050;-83
2022/11/28 12:19:49;;;;;;;49.47;12.43;;;12.60;99.90;;;;;;6203344;28;20097;-82
2022/11/28 12:26:51;;;;;;;46.13;12.20;;;13.10;99.90;;;;;;6118645;28;20046;-82
2022/11/28 12:30:06;;;;;;;45.00;11.40;;;12.90;99.90;;;;;;6199684;28;20054;-82
2022/11/28 12:33:28;;;;;;;44.95;12.00;;;12.90;99.90;;;;;;6203061;28;20046;-82
2022/11/28 12:36:39;;;;;;;49.47;13.20;;;13.00;99.90;;;;;;6199889;28;20133;-83
2022/11/28 12:39:52;;;;;;;48.80;12.40;;;13.20;99.90;;;;;;6201284;28;20030;-82
2022/11/28 12:43:08;;;;;;;57.08;14.85;;;13.10;99.90;;;;;;6201787;28;20058;-83
2022/11/28 12:46:21;;;;;;;55.67;16.02;;;13.30;99.90;;;;;;6201156;28;20053;-84
2022/11/28 12:49:42;;;;;;;53.53;16.27;;;13.40;99.90;;;;;;6200457;28;20076;-83
2022/11/28 12:52:54;;;;;;;60.60;20.08;;;13.60;99.90;;;;;;6201876;28;20063;-84
2022/11/28 12:56:06;;;;;;;49.63;15.43;;;13.60;99.90;;;;;;6201853;28;20046;-82
2022/11/28 12:59:31;;;;;;;;;;;;;;;;;;;;;
2022/11/28 13:03:03;;;;;;;44.50;13.07;;;13.50;99.90;;;;;;6198084;28;20057;-82
2022/11/28 13:06:20;;;;;;;57.70;17.33;;;13.50;99.90;;;;;;6199917;28;20496;-82
2022/11/28 13:09:30;;;;;;;60.13;16.10;;;13.60;99.90;;;;;;6199332;28;20427;-82
2022/11/28 13:12:49;;;;;;;42.70;12.60;;;13.60;99.90;;;;;;6200860;28;20069;-82
2022/11/28 13:16:04;;;;;;;49.08;15.15;;;13.70;99.90;;;;;;6200936;28;20104;-82
2022/11/28 13:19:11;;;;;;;56.22;18.05;;;13.20;99.90;;;;;;6199420;28;20050;-83
2022/11/28 13:22:18;;;;;;;;;;;13.70;99.90;;;;;;6205292;28;20514;-83
2022/11/28 13:25:41;;;;;;;53.90;16.30;;;13.70;99.90;;;;;;6200371;28;19922;-83
2022/11/28 13:28:49;;;;;;;38.33;12.43;;;13.60;99.90;;;;;;6199277;28;20050;-82
2022/11/28 13:32:04;;;;;;;34.97;11.02;;;13.50;99.90;;;;;;6199937;28;20133;-82
2022/11/28 13:35:13;;;;;;;41.22;12.60;;;13.50;99.90;;;;;;6199363;28;20129;-82
2022/11/28 13:38:24;;;;;;;52.00;13.73;;;13.40;99.90;;;;;;6198208;28;20526;-82
2022/11/28 13:41:35;;;;;;;54.75;14.70;;;13.40;99.80;;;;;;6199214;28;20050;-82
2022/11/28 13:44:59;;;;;;;50.80;15.65;;;13.70;99.90;;;;;;6198877;28;20043;-82
2022/11/28 13:48:39;;;;;;;40.40;11.75;;;13.30;99.90;;;;;;6198214;28;20050;-81
2022/11/28 13:51:42;;;;;;;63.15;16.48;;;13.20;99.90;;;;;;6199482;28;20420;-82
2022/11/28 13:54:46;;;;;;;54.58;15.90;;;13.00;99.90;;;;;;6198727;28;20054;-82
2022/11/28 13:57:48;;;;;;;58.42;16.20;;;12.90;99.90;;;;;;6199183;28;20110;-82
2022/11/28 14:01:03;;;;;;;44.63;14.05;;;12.50;99.90;;;;;;6199064;28;20077;-81
2022/11/28 14:04:09;;;;;;;54.20;18.23;;;12.40;99.90;;;;;;6198887;28;20058;-82
2022/11/28 14:07:23;;;;;;;69.82;21.02;;;12.40;99.90;;;;;;6199040;28;20411;-81
2022/11/28 14:10:53;;;;;;;52.75;15.50;;;12.30;99.90;;;;;;6198270;28;20046;-81
2022/11/28 14:14:18;;;;;;;49.67;15.68;;;12.40;99.90;;;;;;6199214;28;20093;-81
2022/11/28 14:17:47;;;;;;;52.75;16.95;;;12.40;99.90;;;;;;6198211;28;20042;-82
2022/11/28 14:20:57;;;;;;;51.88;16.58;;;12.10;99.90;;;;;;6198029;28;20060;-83
2022/11/28 14:24:08;;;;;;;51.55;14.50;;;12.20;99.90;;;;;;6201659;28;20104;-82
2022/11/28 14:27:19;;;;;;;52.75;15.88;;;12.20;99.90;;;;;;6200192;28;20045;-81
2022/11/28 14:30:26;;;;;;;48.75;15.77;;;12.00;99.90;;;;;;6203546;28;20046;-81
2022/11/28 14:33:34;;;;;;;51.85;14.23;;;11.90;99.90;;;;;;6201621;28;20046;-83
2022/11/28 14:36:40;;;;;;;39.08;10.95;;;12.00;99.90;;;;;;6203786;28;20125;-81
2022/11/28 14:39:43;;;;;;;54.90;15.55;;;12.00;99.90;;;;;;6200311;28;20277;-82
2022/11/28 14:42:45;;;;;;;44.10;14.50;;;12.00;99.90;;;;;;6201024;28;20623;-82
2022/11/28 14:45:51;;;;;;;53.88;18.67;;;11.70;99.90;;;;;;6204410;28;20046;-82
2022/11/28 14:49:16;;;;;;;60.80;22.58;;;11.60;99.90;;;;;;6204064;28;20046;-81
2022/11/28 14:52:23;;;;;;;49.67;15.55;;;11.30;99.90;;;;;;6199674;28;20500;-80
2022/11/28 14:55:27;;;;;;;62.03;17.58;;;11.50;99.90;;;;;;6204316;28;20061;-82
2022/11/28 14:58:28;;;;;;;58.83;16.58;;;11.40;99.90;;;;;;6203566;28;20696;-81
2022/11/28 15:01:52;;;;;;;60.50;16.52;;;11.50;99.90;;;;;;6203920;28;20066;-83
2022/11/28 15:05:17;;;;;;;58.35;17.85;;;11.50;99.90;;;;;;6206518;28;20649;-81
2022/11/28 15:08:34;;;;;;;65.38;20.02;;;11.30;99.90;;;;;;6204884;28;20052;-81
2022/11/28 15:11:47;;;;;;;63.13;18.20;;;11.40;99.90;;;;;;6204287;28;20056;-81
2022/11/28 15:14:54;;;;;;;53.97;16.15;;;10.80;99.90;;;;;;6205790;28;20042;-83
2022/11/28 15:18:01;;;;;;;63.28;17.60;;;11.30;99.90;;;;;;6204118;28;20514;-83
2022/11/28 15:21:07;;;;;;;64.28;16.27;;;11.30;99.90;;;;;;6198629;28;20416;-82
2022/11/28 15:24:15;;;;;;;49.55;15.95;;;11.10;99.90;;;;;;6205083;28;20053;-82
2022/11/28 15:27:24;;;;;;;56.45;16.90;;;11.20;99.90;;;;;;6205576;28;20104;-82
2022/11/28 15:30:26;;;;;;;54.80;16.83;;;11.30;99.90;;;;;;6207500;28;20113;-82
2022/11/28 15:33:29;;;;;;;66.00;19.30;;;11.00;99.90;;;;;;6213268;28;20056;-82
2022/11/28 15:36:31;;;;;;;49.90;15.60;;;11.10;99.90;;;;;;6209850;28;20096;-81
2022/11/28 15:43:53;;;;;;;66.72;18.92;;;11.00;99.90;;;;;;6204918;28;20420;-81
2022/11/28 15:46:58;;;;;;;136.68;43.88;;;11.10;99.90;;;;;;6209930;28;20058;-81
2022/11/28 15:50:04;;;;;;;127.07;42.03;;;10.90;99.90;;;;;;6212811;28;20530;-82
2022/11/28 15:53:21;;;;;;;83.47;24.88;;;12.30;99.90;;;;;;6210062;28;20074;-82
2022/11/28 15:56:33;;;;;;;97.43;27.27;;;10.90;99.90;;;;;;6197982;28;20105;-83
2022/11/28 15:59:36;;;;;;;61.30;18.08;;;10.90;99.90;;;;;;6206917;28;20054;-81
2022/11/28 16:02:49;;;;;;;71.03;21.67;;;11.10;99.90;;;;;;6206065;28;20094;-82
2022/11/28 16:05:54;;;;;;;60.95;18.95;;;10.60;99.90;;;;;;6216157;28;20050;-82
2022/11/28 19:43:34;;;;;;;53.83;18.55;;;10.70;99.90;;;;;;6115056;28;20055;-88
2022/11/28 20:50:02;;;;;;;74.35;23.90;;;10.60;99.90;;;;;;6175640;28;20054;-91
2022/11/28 20:57:31;;;;;;;78.22;22.50;;;10.70;99.90;;;;;;6170243;28;20055;-88
2022/11/28 21:04:50;;;;;;;75.45;24.13;;;11.30;99.90;;;;;;6200763;28;20051;-86
2022/11/28 21:07:55;;;;;;;64.88;20.70;;;10.80;99.90;;;;;;6177946;28;20109;-86
2022/11/28 21:10:57;;;;;;;99.85;31.10;;;;;;;;;;6175362;28;20051;-89
2022/11/28 21:13:59;;;;;;;72.88;21.48;;;10.60;99.90;;;;;;6157612;28;20055;-88
2022/11/28 21:17:02;;;;;;;85.03;26.83;;;10.70;99.90;;;;;;6149945;28;20107;-88
2022/11/28 21:20:05;;;;;;;87.95;26.80;;;11.00;99.90;;;;;;6150657;28;20075;-89
2022/11/28 21:23:07;;;;;;;86.88;28.33;;;10.80;99.90;;;;;;6149998;28;20065;-88
2022/11/28 21:26:12;;;;;;;79.28;24.20;;;10.60;99.90;;;;;;6168527;28;20544;-90
2022/11/28 21:29:14;;;;;;;68.65;23.63;;;;;;;;;;6174489;28;20051;-90
2022/11/28 21:32:17;;;;;;;69.18;22.20;;;11.00;99.90;;;;;;6174615;28;20101;-89
2022/11/28 21:35:19;;;;;;;71.82;23.55;;;10.80;99.90;;;;;;6174244;28;20061;-89
2022/11/28 21:38:21;;;;;;;75.47;24.85;;;10.90;99.90;;;;;;6173013;28;20039;-88
2022/11/28 21:41:26;;;;;;;76.50;23.52;;;10.80;99.90;;;;;;6173614;28;20185;-91
2022/11/28 21:44:28;;;;;;;76.82;25.42;;;10.90;99.90;;;;;;6173783;28;20118;-91
2022/11/28 21:47:32;;;;;;;98.43;31.83;;;10.50;99.90;;;;;;6173386;28;20050;-90
2022/11/28 21:50:45;;;;;;;84.97;25.23;;;10.90;99.90;;;;;;6184136;28;20088;-90
2022/11/28 21:53:47;;;;;;;72.03;23.63;;;;;;;;;;6172820;28;20051;-90
2022/11/28 21:56:49;;;;;;;79.13;25.92;;;10.90;99.90;;;;;;6172635;28;20046;-89
2022/11/28 21:59:51;;;;;;;84.47;28.60;;;;;;;;;;6173039;28;20201;-89
2022/11/28 22:02:54;;;;;;;90.75;27.95;;;10.90;99.90;;;;;;6173633;28;20101;-90
2022/11/28 22:06:00;;;;;;;74.95;26.02;;;10.80;99.90;;;;;;6173223;28;20452;-88
2022/11/28 22:09:04;;;;;;;77.60;26.58;;;11.00;99.90;;;;;;6172593;28;20047;-88
2022/11/28 22:12:07;;;;;;;95.25;31.52;;;11.10;99.90;;;;;;6174581;28;20138;-88
2022/11/28 22:15:09;;;;;;;91.72;29.88;;;10.90;99.90;;;;;;6174851;28;20145;-86
2022/11/28 22:18:13;;;;;;;89.78;29.38;;;11.00;99.90;;;;;;6173518;28;20122;-86
2022/11/28 22:21:15;;;;;;;89.05;29.75;;;11.20;99.90;;;;;;6173447;28;20417;-87
2022/11/28 22:24:17;;;;;;;87.80;29.02;;;11.10;99.90;;;;;;6173529;28;20058;-87
2022/11/28 22:27:19;;;;;;;90.40;32.47;;;10.40;99.90;;;;;;6174716;28;20607;-87
2022/11/28 22:30:21;;;;;;;83.40;28.83;;;11.00;99.90;;;;;;6174596;28;20432;-87
2022/11/28 22:33:24;;;;;;;97.88;32.90;;;10.90;99.90;;;;;;6174779;28;20632;-89
2022/11/28 22:36:27;;;;;;;89.93;31.52;;;;;;;;;;6174441;28;20129;-87
2022/11/28 22:39:29;;;;;;;90.03;31.30;;;;;;;;;;6156088;28;20062;-87
2022/11/28 22:42:31;;;;;;;100.32;32.85;;;11.10;99.90;;;;;;6146804;28;20061;-87
2022/11/28 22:45:33;;;;;;;104.90;36.33;;;10.90;99.90;;;;;;6150860;28;20515;-88
2022/11/28 22:48:37;;;;;;;99.10;33.30;;;11.10;99.90;;;;;;6152993;28;20101;-87
2022/11/28 22:51:40;;;;;;;99.97;32.58;;;11.00;99.90;;;;;;6173689;28;20047;-89
2022/11/28 22:54:42;;;;;;;102.78;32.78;;;11.00;99.90;;;;;;6173497;28;20178;-89
2022/11/28 22:57:44;;;;;;;101.93;34.65;;;10.90;99.90;;;;;;6173975;28;20107;-89
2022/11/28 23:00:46;;;;;;;105.80;32.28;;;12.80;99.90;;;;;;6173516;28;20046;-89
2022/11/28 23:03:49;;;;;;;89.05;30.02;;;10.60;99.90;;;;;;6173765;28;20206;-90
2022/11/28 23:06:51;;;;;;;92.10;30.27;;;10.90;99.90;;;;;;6177181;28;20050;-90
2022/11/28 23:09:53;;;;;;;91.47;29.50;;;;;;;;;;6177039;28;20077;-86
2022/11/28 23:12:56;;;;;;;84.65;27.80;;;11.10;99.90;;;;;;6176536;28;20497;-87
2022/11/28 23:16:08;;;;;;;102.20;31.98;;;10.90;99.90;;;;;;6177259;28;20133;-88
2022/11/28 23:19:13;;;;;;;79.50;25.63;;;11.00;99.90;;;;;;6178715;28;20182;-89
2022/11/28 23:22:15;;;;;;;75.18;27.40;;;10.70;99.90;;;;;;6177205;28;20138;-87
2022/11/28 23:25:17;;;;;;;113.15;35.50;;;10.90;99.90;;;;;;6176055;28;20053;-86
2022/11/28 23:28:19;;;;;;;98.15;29.13;;;10.70;99.90;;;;;;6175447;28;20104;-87
2022/11/28 23:31:22;;;;;;;73.40;25.27;;;10.90;99.90;;;;;;6177337;28;20685;-88
2022/11/28 23:34:26;;;;;;;92.72;27.80;;;10.70;99.90;;;;;;6175952;28;20501;-89
2022/11/28 23:37:27;;;;;;;88.32;30.13;;;10.80;99.90;;;;;;6175101;28;20046;-90
2022/11/28 23:40:30;;;;;;;95.55;30.08;;;10.60;99.90;;;;;;6180272;28;20046;-89
2022/11/28 23:43:32;;;;;;;72.80;24.23;;;10.80;99.90;;;;;;6176432;28;20058;-89
2022/11/28 23:46:35;;;;;;;85.53;26.55;;;10.60;99.90;;;;;;6176315;28;20129;-88
2022/11/28 23:49:38;;;;;;;87.65;30.73;;;10.70;99.90;;;;;;6174307;28;20379;-90
2022/11/28 23:52:40;;;;;;;86.00;29.92;;;10.80;99.90;;;;;;6175858;28;20178;-89
2022/11/28 23:55:42;;;;;;;108.35;34.97;;;10.50;99.90;;;;;;6150889;28;20624;-87
2022/11/28 23:58:44;;;;;;;92.75;30.58;;;10.60;99.90;;;;;;6172098;28;20055;-87
